createdAt,value
2022-12-24T00:01:44.566Z,9.31
2022-12-24T00:04:17.418Z,9.30
2022-12-24T00:06:49.788Z,9.29
2022-12-24T00:09:22.579Z,9.30
2022-12-24T00:11:56.559Z,9.31
2022-12-24T00:14:29.802Z,9.29
2022-12-24T00:17:02.513Z,9.31
2022-12-24T00:19:35.097Z,9.30
2022-12-24T00:22:07.446Z,9.31
2022-12-24T00:24:39.855Z,9.31
2022-12-24T00:27:12.211Z,9.31
2022-12-24T00:29:45.851Z,9.31
2022-12-24T00:32:18.528Z,9.33
2022-12-24T00:34:51.278Z,9.32
2022-12-24T00:37:23.635Z,9.31
2022-12-24T00:39:56.109Z,9.19
2022-12-24T00:42:28.884Z,9.25
2022-12-24T00:45:01.473Z,9.13
2022-12-24T00:47:34.152Z,9.21
2022-12-24T00:50:07.948Z,9.22
2022-12-24T00:52:40.467Z,9.22
2022-12-24T00:55:13.378Z,9.22
2022-12-24T00:57:45.877Z,9.20
2022-12-24T01:00:19.204Z,9.21
2022-12-24T01:02:52.027Z,9.22
2022-12-24T01:05:24.879Z,9.22
2022-12-24T01:07:57.301Z,9.19
2022-12-24T01:10:29.760Z,9.21
2022-12-24T01:13:04.424Z,9.21
2022-12-24T01:15:35.205Z,9.22
2022-12-24T01:18:07.884Z,9.22
2022-12-24T01:20:40.315Z,9.23
2022-12-24T01:23:13.310Z,9.23
2022-12-24T01:25:46.106Z,9.23
2022-12-24T01:28:18.561Z,9.24
2022-12-24T01:30:51.642Z,9.22
2022-12-24T01:33:24.349Z,9.20
2022-12-24T01:35:56.795Z,9.23
2022-12-24T01:38:29.190Z,9.23
2022-12-24T01:41:19.008Z,9.16
2022-12-24T01:43:51.820Z,9.26
2022-12-24T01:46:28.728Z,9.28
2022-12-24T01:49:04.104Z,9.28
2022-12-24T01:51:40.049Z,9.27
2022-12-24T01:54:15.949Z,9.26
2022-12-24T01:56:52.045Z,9.24
2022-12-24T01:59:25.950Z,9.21
2022-12-24T02:01:58.986Z,9.20
2022-12-24T02:04:38.261Z,9.22
2022-12-24T02:07:10.946Z,9.22
2022-12-24T02:09:43.773Z,9.23
2022-12-24T02:12:17.083Z,9.24
2022-12-24T02:14:49.846Z,9.24
2022-12-24T02:17:31.502Z,9.24
2022-12-24T02:20:37.498Z,9.23
2022-12-24T02:23:33.517Z,9.11
2022-12-24T02:26:28.403Z,9.20
2022-12-24T02:29:19.667Z,9.21
2022-12-24T02:31:55.185Z,9.21
2022-12-24T02:34:31.609Z,9.22
2022-12-24T02:37:07.984Z,9.21
2022-12-24T02:39:46.960Z,9.21
2022-12-24T02:42:23.542Z,9.21
2022-12-24T02:45:03.062Z,9.20
2022-12-24T02:47:36.573Z,9.18
2022-12-24T02:50:11.905Z,9.13
2022-12-24T02:52:46.602Z,9.15
2022-12-24T02:55:22.259Z,9.18
2022-12-24T02:58:21.428Z,9.15
2022-12-24T03:01:16.574Z,9.17
2022-12-24T03:04:08.696Z,9.07
2022-12-24T03:06:49.165Z,9.09
2022-12-24T03:09:28.089Z,9.13
2022-12-24T03:12:05.080Z,9.18
2022-12-24T03:14:38.543Z,9.20
2022-12-24T03:17:12.283Z,9.19
2022-12-24T03:19:45.005Z,9.18
2022-12-24T03:22:19.555Z,9.19
2022-12-24T03:24:52.080Z,9.19
2022-12-24T03:27:26.706Z,9.19
2022-12-24T03:29:59.549Z,9.18
2022-12-24T03:32:33.606Z,9.14
2022-12-24T03:35:06.372Z,9.14
2022-12-24T03:37:39.968Z,9.14
2022-12-24T03:40:13.515Z,9.14
2022-12-24T03:42:45.988Z,9.14
2022-12-24T03:45:18.983Z,9.05
2022-12-24T03:47:51.800Z,9.11
2022-12-24T03:50:24.356Z,9.11
2022-12-24T03:52:57.806Z,9.09
2022-12-24T03:55:30.211Z,9.01
2022-12-24T03:58:02.539Z,9.14
2022-12-24T04:00:34.965Z,9.10
2022-12-24T04:03:07.533Z,9.11
2022-12-24T04:05:40.068Z,9.10
2022-12-24T04:08:12.432Z,9.11
2022-12-24T04:10:44.779Z,9.15
2022-12-24T04:13:17.274Z,9.11
2022-12-24T04:15:59.556Z,9.10
2022-12-24T04:18:32.753Z,9.06
2022-12-24T04:21:05.501Z,9.08
2022-12-24T04:23:40.890Z,9.09
2022-12-24T04:26:14.690Z,9.09
2022-12-24T04:28:47.079Z,9.12
2022-12-24T04:31:20.561Z,9.07
2022-12-24T04:33:54.403Z,9.07
2022-12-24T04:36:27.002Z,9.03
2022-12-24T04:39:00.188Z,9.09
2022-12-24T04:41:33.196Z,9.07
2022-12-24T04:44:05.696Z,9.08
2022-12-24T04:46:37.977Z,9.00
2022-12-24T04:49:10.689Z,9.05
2022-12-24T04:51:42.999Z,9.03
2022-12-24T04:54:16.688Z,9.00
2022-12-24T04:56:49.100Z,8.93
2022-12-24T04:59:21.836Z,9.03
2022-12-24T05:01:54.457Z,9.01
2022-12-24T05:04:27.063Z,8.95
2022-12-24T05:06:59.778Z,9.02
2022-12-24T05:09:32.799Z,8.91
2022-12-24T05:12:05.694Z,8.90
2022-12-24T05:14:38.497Z,8.92
2022-12-24T05:17:11.144Z,8.95
2022-12-24T05:19:43.787Z,8.94
2022-12-24T05:22:33.614Z,8.95
2022-12-24T05:25:24.253Z,9.00
2022-12-24T05:27:56.960Z,9.00
2022-12-24T05:30:29.922Z,8.97
2022-12-24T05:33:02.472Z,8.93
2022-12-24T05:35:34.813Z,8.94
2022-12-24T05:38:07.381Z,8.94
2022-12-24T05:40:39.832Z,8.90
2022-12-24T05:43:12.433Z,8.92
2022-12-24T05:45:44.958Z,8.90
2022-12-24T05:48:17.294Z,8.85
2022-12-24T05:50:50.817Z,8.89
2022-12-24T05:53:23.871Z,8.91
2022-12-24T05:55:56.359Z,8.89
2022-12-24T05:58:30.162Z,8.79
2022-12-24T06:01:04.430Z,8.80
2022-12-24T06:03:37.793Z,8.82
2022-12-24T06:06:12.656Z,8.81
2022-12-24T06:08:45.284Z,8.85
2022-12-24T06:11:19.970Z,8.80
2022-12-24T06:13:51.164Z,8.76
2022-12-24T06:16:25.523Z,8.76
2022-12-24T06:18:58.068Z,8.78
2022-12-24T06:21:30.594Z,8.80
2022-12-24T06:24:03.663Z,8.77
2022-12-24T06:26:36.751Z,8.78
2022-12-24T06:29:10.304Z,8.80
2022-12-24T06:31:42.890Z,8.78
2022-12-24T06:34:15.276Z,8.83
2022-12-24T06:36:47.734Z,8.83
2022-12-24T06:39:20.283Z,8.83
2022-12-24T06:41:52.900Z,8.82
2022-12-24T06:44:26.548Z,8.84
2022-12-24T06:46:59.242Z,8.82
2022-12-24T06:49:31.767Z,8.84
2022-12-24T06:52:04.315Z,8.84
2022-12-24T06:54:40.191Z,8.84
2022-12-24T06:57:18.511Z,8.81
2022-12-24T06:59:51.104Z,8.85
2022-12-24T07:02:24.406Z,8.86
2022-12-24T07:04:56.947Z,8.87
2022-12-24T07:07:29.367Z,8.84
2022-12-24T07:10:01.876Z,8.85
2022-12-24T07:12:34.252Z,8.67
2022-12-24T07:15:07.878Z,8.87
2022-12-24T07:17:40.410Z,8.87
2022-12-24T07:20:16.139Z,8.79
2022-12-24T07:22:48.673Z,8.81
2022-12-24T07:25:21.087Z,8.85
2022-12-24T07:27:53.713Z,8.65
2022-12-24T07:30:26.046Z,8.85
2022-12-24T07:32:58.587Z,8.86
2022-12-24T07:35:31.032Z,8.84
2022-12-24T07:38:04.352Z,8.84
2022-12-24T07:40:37.841Z,8.72
2022-12-24T07:43:10.609Z,8.83
2022-12-24T07:45:43.612Z,8.83
2022-12-24T07:48:16.342Z,8.84
2022-12-24T07:50:50.002Z,8.86
2022-12-24T07:53:22.550Z,8.83
2022-12-24T07:55:55.440Z,8.87
2022-12-24T07:58:28.989Z,8.88
2022-12-24T08:01:02.536Z,8.87
2022-12-24T08:03:35.255Z,8.89
2022-12-24T08:06:09.009Z,8.88
2022-12-24T08:08:41.432Z,8.90
2022-12-24T08:11:14.014Z,8.90
2022-12-24T08:13:46.672Z,8.90
2022-12-24T08:16:32.764Z,8.88
2022-12-24T08:19:14.813Z,8.90
2022-12-24T08:21:53.225Z,8.89
2022-12-24T08:24:32.506Z,8.89
2022-12-24T08:27:06.535Z,8.85
2022-12-24T08:29:39.330Z,8.86
2022-12-24T08:32:11.718Z,8.91
2022-12-24T08:34:44.281Z,8.93
2022-12-24T08:37:16.620Z,8.93
2022-12-24T08:39:49.073Z,8.90
2022-12-24T08:42:21.969Z,8.97
2022-12-24T08:44:54.393Z,8.96
2022-12-24T08:47:26.760Z,8.98
2022-12-24T08:49:59.238Z,8.93
2022-12-24T08:52:31.596Z,9.03
2022-12-24T08:55:05.166Z,9.03
2022-12-24T08:57:39.660Z,9.03
2022-12-24T09:00:13.558Z,8.99
2022-12-24T09:02:46.363Z,9.06
2022-12-24T09:05:19.461Z,9.08
2022-12-24T09:07:52.286Z,9.05
2022-12-24T09:10:24.780Z,9.06
2022-12-24T09:12:57.156Z,9.05
2022-12-24T09:15:29.909Z,9.07
2022-12-24T09:18:03.942Z,8.98
2022-12-24T09:20:36.660Z,9.10
2022-12-24T09:23:09.114Z,9.07
2022-12-24T09:25:45.862Z,9.07
2022-12-24T09:28:18.434Z,9.08
2022-12-24T09:31:03.146Z,9.12
2022-12-24T09:33:38.758Z,9.09
2022-12-24T09:36:12.229Z,9.13
2022-12-24T09:38:44.891Z,9.15
2022-12-24T09:41:25.957Z,9.14
2022-12-24T09:44:02.421Z,9.14
2022-12-24T09:46:37.450Z,9.17
2022-12-24T09:49:16.142Z,9.13
2022-12-24T09:51:52.673Z,9.19
2022-12-24T09:54:28.489Z,9.21
2022-12-24T09:57:06.791Z,9.12
2022-12-24T09:59:45.242Z,9.21
2022-12-24T10:02:20.461Z,9.20
2022-12-24T10:04:53.360Z,9.06
2022-12-24T10:07:41.075Z,9.18
2022-12-24T10:10:22.525Z,9.20
2022-12-24T10:13:04.580Z,9.19
2022-12-24T10:15:42.227Z,9.21
2022-12-24T10:18:27.657Z,9.11
2022-12-24T10:21:07.483Z,9.19
2022-12-24T10:23:45.871Z,9.19
2022-12-24T10:26:24.489Z,9.21
2022-12-24T10:29:01.901Z,9.22
2022-12-24T10:31:46.806Z,9.22
2022-12-24T10:34:21.242Z,9.43
2022-12-24T10:36:54.108Z,10.77
2022-12-24T10:39:28.572Z,11.25
2022-12-24T10:42:02.699Z,10.76
2022-12-24T10:44:36.153Z,10.42
2022-12-24T10:47:10.805Z,10.28
2022-12-24T10:49:50.373Z,10.08
2022-12-24T10:52:27.247Z,10.18
2022-12-24T10:55:25.126Z,10.01
2022-12-24T10:58:07.247Z,9.93
2022-12-24T11:00:42.348Z,9.84
2022-12-24T11:03:23.688Z,9.78
2022-12-24T11:06:12.061Z,9.72
2022-12-24T11:08:47.766Z,9.44
2022-12-24T11:11:23.665Z,9.58
2022-12-24T11:13:58.839Z,9.56
2022-12-24T11:16:34.491Z,9.54
2022-12-24T11:19:18.742Z,9.44
2022-12-24T11:21:59.723Z,9.50
2022-12-24T11:24:38.958Z,9.50
2022-12-24T11:27:40.717Z,9.48
2022-12-24T11:30:23.749Z,9.40
2022-12-24T11:33:21.237Z,9.45
2022-12-24T11:35:58.771Z,9.45
2022-12-24T11:38:34.044Z,9.43
2022-12-24T11:41:11.597Z,9.44
2022-12-24T11:44:07.112Z,9.40
2022-12-24T11:46:42.629Z,9.25
2022-12-24T11:49:25.641Z,9.38
2022-12-24T11:52:25.843Z,9.36
2022-12-24T11:55:22.633Z,9.39
2022-12-24T11:58:01.672Z,9.38
2022-12-24T12:00:34.474Z,9.38
2022-12-24T12:03:13.320Z,9.39
2022-12-24T12:05:46.369Z,9.38
2022-12-24T12:08:22.859Z,9.38
2022-12-24T12:10:58.094Z,9.28
2022-12-24T12:13:34.236Z,9.31
2022-12-24T12:16:18.458Z,9.36
2022-12-24T12:18:58.332Z,9.34
2022-12-24T12:21:40.634Z,9.31
2022-12-24T12:24:20.726Z,9.33
2022-12-24T12:27:05.542Z,9.32
2022-12-24T12:29:44.697Z,9.32
2022-12-24T12:32:25.781Z,9.32
2022-12-24T12:35:05.667Z,9.32
2022-12-24T12:37:41.928Z,9.32
2022-12-24T12:40:18.538Z,9.31
2022-12-24T12:43:01.226Z,9.30
2022-12-24T12:45:44.893Z,9.30
2022-12-24T12:48:33.882Z,9.32
2022-12-24T12:51:16.788Z,9.33
2022-12-24T12:54:00.173Z,9.35
2022-12-24T12:56:35.633Z,9.33
2022-12-24T12:59:16.740Z,9.37
2022-12-24T13:01:59.338Z,9.41
2022-12-24T13:05:07.345Z,9.43
2022-12-24T13:08:01.444Z,9.46
2022-12-24T13:11:00.147Z,9.47
2022-12-24T13:13:58.157Z,9.46
2022-12-24T13:17:03.061Z,9.48
2022-12-24T13:20:06.120Z,9.48
2022-12-24T13:22:39.326Z,9.47
2022-12-24T13:25:27.343Z,9.46
2022-12-24T13:28:15.983Z,9.43
2022-12-24T13:30:49.254Z,9.43
2022-12-24T13:33:50.779Z,9.41
2022-12-24T13:36:24.652Z,9.28
2022-12-24T13:38:58.819Z,9.33
2022-12-24T13:41:53.192Z,9.34
2022-12-24T13:44:34.734Z,9.34
2022-12-24T13:47:28.357Z,9.31
2022-12-24T13:50:23.876Z,9.31
2022-12-24T13:52:57.040Z,9.32
2022-12-24T13:55:30.031Z,9.33
2022-12-24T13:58:06.747Z,9.33
2022-12-24T14:00:52.800Z,9.34
2022-12-24T14:03:37.939Z,9.31
2022-12-24T14:06:11.191Z,9.29
2022-12-24T14:08:47.958Z,9.29
2022-12-24T14:11:23.352Z,9.26
2022-12-24T14:14:10.725Z,9.28
2022-12-24T14:16:50.024Z,9.28
2022-12-24T14:19:25.902Z,9.29
2022-12-24T14:22:07.440Z,9.18
2022-12-24T14:24:43.560Z,9.26
2022-12-24T14:27:21.820Z,9.25
2022-12-24T14:30:01.572Z,9.26
2022-12-24T14:32:38.849Z,9.25
2022-12-24T14:35:18.700Z,9.25
2022-12-24T14:37:59.133Z,9.22
2022-12-24T14:40:34.047Z,9.19
2022-12-24T14:43:15.531Z,9.19
2022-12-24T14:45:55.573Z,9.16
2022-12-24T14:48:35.736Z,9.17
2022-12-24T14:51:16.546Z,9.18
2022-12-24T14:54:14.591Z,8.88
2022-12-24T14:56:47.283Z,9.17
2022-12-24T14:59:22.206Z,9.13
2022-12-24T15:01:54.902Z,9.12
2022-12-24T15:04:27.350Z,9.21
2022-12-24T15:07:03.855Z,9.23
2022-12-24T15:09:40.101Z,9.49
2022-12-24T15:12:15.685Z,9.53
2022-12-24T15:14:48.789Z,9.63
2022-12-24T15:17:21.734Z,9.73
2022-12-24T15:19:56.785Z,9.93
2022-12-24T15:22:32.544Z,10.06
2022-12-24T15:25:05.411Z,9.90
2022-12-24T15:27:41.765Z,9.64
2022-12-24T15:30:20.571Z,9.75
2022-12-24T15:32:56.488Z,9.70
2022-12-24T15:35:52.188Z,9.52
2022-12-24T15:38:32.328Z,9.41
2022-12-24T15:41:07.912Z,9.51
2022-12-24T15:43:44.366Z,9.37
2022-12-24T15:46:25.934Z,9.43
2022-12-24T15:49:01.700Z,9.38
2022-12-24T15:51:40.233Z,9.25
2022-12-24T15:54:21.893Z,9.33
2022-12-24T15:56:54.755Z,9.31
2022-12-24T15:59:36.853Z,9.28
2022-12-24T16:02:43.257Z,9.26
2022-12-24T16:05:31.931Z,9.25
2022-12-24T16:08:10.204Z,9.14
2022-12-24T16:10:45.928Z,9.23
2022-12-24T16:13:22.489Z,9.21
2022-12-24T16:15:59.242Z,9.20
2022-12-24T16:18:37.678Z,9.17
2022-12-24T16:21:10.654Z,9.16
2022-12-24T16:23:52.097Z,9.15
2022-12-24T16:26:25.530Z,9.12
2022-12-24T16:28:59.500Z,9.12
2022-12-24T16:31:39.081Z,9.12
2022-12-24T16:34:17.189Z,9.12
2022-12-24T16:36:49.737Z,9.11
2022-12-24T16:39:28.589Z,9.11
2022-12-24T16:42:20.620Z,9.08
2022-12-24T16:44:55.682Z,9.08
2022-12-24T16:47:33.648Z,9.07
2022-12-24T16:50:09.421Z,9.06
2022-12-24T16:52:41.778Z,9.05
2022-12-24T16:55:17.479Z,9.05
2022-12-24T16:57:50.056Z,9.05
2022-12-24T17:00:25.737Z,9.07
2022-12-24T17:02:58.373Z,9.06
2022-12-24T17:05:31.417Z,8.95
2022-12-24T17:08:04.448Z,9.05
2022-12-24T17:10:37.092Z,9.06
2022-12-24T17:13:09.869Z,9.05
2022-12-24T17:15:44.468Z,9.05
2022-12-24T17:18:15.247Z,9.06
2022-12-24T17:20:58.377Z,9.05
2022-12-24T17:23:31.176Z,9.04
2022-12-24T17:26:10.728Z,9.01
2022-12-24T17:28:45.769Z,9.01
2022-12-24T17:31:20.164Z,9.03
2022-12-24T17:33:52.712Z,9.04
2022-12-24T17:36:25.053Z,9.03
2022-12-24T17:38:57.894Z,9.03
2022-12-24T17:41:30.234Z,9.01
2022-12-24T17:44:04.952Z,9.02
2022-12-24T17:46:35.963Z,9.04
2022-12-24T17:49:08.495Z,9.02
2022-12-24T17:51:45.276Z,9.01
2022-12-24T17:54:18.791Z,9.00
2022-12-24T17:56:51.505Z,9.00
2022-12-24T17:59:24.170Z,9.00
2022-12-24T18:01:56.756Z,8.99
2022-12-24T18:04:29.238Z,9.00
2022-12-24T18:07:03.259Z,8.97
2022-12-24T18:09:35.853Z,8.97
2022-12-24T18:12:08.922Z,8.87
2022-12-24T18:14:41.843Z,8.98
2022-12-24T18:17:14.166Z,8.99
2022-12-24T18:19:46.582Z,8.99
2022-12-24T18:22:19.259Z,8.98
2022-12-24T18:24:51.892Z,8.98
2022-12-24T18:27:24.423Z,8.96
2022-12-24T18:29:57.354Z,8.96
2022-12-24T18:32:29.788Z,8.97
2022-12-24T18:35:02.348Z,8.95
2022-12-24T18:37:35.575Z,8.93
2022-12-24T18:40:11.717Z,8.83
2022-12-24T18:42:44.855Z,8.94
2022-12-24T18:45:17.467Z,8.95
2022-12-24T18:47:50.113Z,8.96
2022-12-24T18:50:22.692Z,8.95
2022-12-24T18:52:55.548Z,8.95
2022-12-24T18:55:28.273Z,8.96
2022-12-24T18:58:01.005Z,8.94
2022-12-24T19:00:33.905Z,8.81
2022-12-24T19:03:07.133Z,8.90
2022-12-24T19:05:39.837Z,8.89
2022-12-24T19:11:04.809Z,8.87
2022-12-24T19:13:37.303Z,8.85
2022-12-24T19:16:11.575Z,8.83
2022-12-24T19:18:44.495Z,8.85
2022-12-24T19:21:18.568Z,8.78
2022-12-24T19:23:51.903Z,8.90
2022-12-24T19:26:24.848Z,8.76
2022-12-24T19:28:57.624Z,8.85
2022-12-24T19:31:30.079Z,8.89
2022-12-24T19:34:03.114Z,8.85
2022-12-24T19:36:35.669Z,8.77
2022-12-24T19:39:08.084Z,8.82
2022-12-24T19:41:41.048Z,8.67
2022-12-24T19:44:13.846Z,8.81
2022-12-24T19:46:46.501Z,8.81
2022-12-24T19:49:18.961Z,8.74
2022-12-24T19:51:51.309Z,8.84
2022-12-24T19:54:24.014Z,8.86
2022-12-24T19:56:56.382Z,8.86
2022-12-24T19:59:29.092Z,8.87
2022-12-24T20:02:01.865Z,8.86
2022-12-24T20:04:34.500Z,8.84
2022-12-24T20:07:07.253Z,8.86
2022-12-24T20:09:40.206Z,8.88
2022-12-24T20:12:12.538Z,8.88
2022-12-24T20:14:45.007Z,8.82
2022-12-24T20:17:17.616Z,8.89
2022-12-24T20:19:50.192Z,8.83
2022-12-24T20:22:23.143Z,8.83
2022-12-24T20:24:55.720Z,8.93
2022-12-24T20:27:28.553Z,8.94
2022-12-24T20:30:01.131Z,8.96
2022-12-24T20:32:33.903Z,8.92
2022-12-24T20:35:07.716Z,8.91
2022-12-24T20:37:45.975Z,8.93
2022-12-24T20:40:19.245Z,8.92
2022-12-24T20:42:54.222Z,8.92
2022-12-24T20:45:27.238Z,8.83
2022-12-24T20:48:00.039Z,8.93
2022-12-24T20:50:33.025Z,8.90
2022-12-24T20:53:05.818Z,8.92
2022-12-24T20:55:39.239Z,8.92
2022-12-24T20:58:13.248Z,8.94
2022-12-24T21:00:46.399Z,8.93
2022-12-24T21:03:19.972Z,8.94
2022-12-24T21:05:53.032Z,8.96
2022-12-24T21:08:25.656Z,8.94
2022-12-24T21:11:13.877Z,8.93
2022-12-24T21:13:46.620Z,8.95
2022-12-24T21:16:19.131Z,8.94
2022-12-24T21:18:53.585Z,8.94
2022-12-24T21:21:26.252Z,8.91
2022-12-24T21:23:59.344Z,8.89
2022-12-24T21:26:32.239Z,8.89
2022-12-24T21:29:06.756Z,8.91
2022-12-24T21:31:39.904Z,8.89
2022-12-24T21:34:12.636Z,8.90
2022-12-24T21:36:45.295Z,8.89
2022-12-24T21:39:20.200Z,8.77
2022-12-24T21:41:52.693Z,8.89
2022-12-24T21:44:25.163Z,8.90
2022-12-24T21:46:57.969Z,8.92
2022-12-24T21:49:48.222Z,8.91
2022-12-24T21:52:21.396Z,8.91
2022-12-24T21:54:53.822Z,8.90
2022-12-24T21:57:44.064Z,8.87
2022-12-24T22:00:23.228Z,8.88
2022-12-24T22:02:59.213Z,8.90
2022-12-24T22:05:35.717Z,8.79
2022-12-24T22:08:25.659Z,8.79
2022-12-24T22:11:26.421Z,8.89
2022-12-24T22:13:59.152Z,8.89
2022-12-24T22:16:31.656Z,8.87
2022-12-24T22:19:04.085Z,8.85
2022-12-24T22:21:36.781Z,8.88
2022-12-24T22:24:12.455Z,8.87
2022-12-24T22:26:45.316Z,8.90
2022-12-24T22:29:17.868Z,8.92
2022-12-24T22:31:50.576Z,8.94
2022-12-24T22:34:23.240Z,8.91
2022-12-24T22:36:55.640Z,8.90
2022-12-24T22:39:28.091Z,8.80
2022-12-24T22:42:00.633Z,8.83
2022-12-24T22:44:33.305Z,8.58
2022-12-24T22:47:05.969Z,8.78
2022-12-24T22:49:38.322Z,8.69
2022-12-24T22:52:10.818Z,8.70
2022-12-24T22:54:43.242Z,8.75
2022-12-24T22:57:15.632Z,8.72
2022-12-24T22:59:49.544Z,8.77
2022-12-24T23:02:28.144Z,8.81
2022-12-24T23:05:01.723Z,8.76
2022-12-24T23:07:35.479Z,8.82
2022-12-24T23:10:09.739Z,8.72
2022-12-24T23:12:59.870Z,8.82
2022-12-24T23:15:34.048Z,8.82
2022-12-24T23:18:07.091Z,8.95
2022-12-24T23:20:43.694Z,8.98
2022-12-24T23:23:17.041Z,8.96
2022-12-24T23:25:51.077Z,8.95
2022-12-24T23:28:27.889Z,9.05
2022-12-24T23:31:01.825Z,8.96
2022-12-24T23:33:35.000Z,8.84
2022-12-24T23:36:10.865Z,8.80
2022-12-24T23:38:44.776Z,8.82
2022-12-24T23:41:19.737Z,8.97
2022-12-24T23:43:52.511Z,9.08
2022-12-24T23:46:25.397Z,9.07
2022-12-24T23:49:01.048Z,9.04
2022-12-24T23:51:33.514Z,9.06
2022-12-24T23:54:06.277Z,8.95
2022-12-24T23:56:38.935Z,8.99
2022-12-24T23:59:11.408Z,9.06
